Terminal Aerodrome Forecast
Issued by NWS Amarillo, TX

Home | Current Version | Previous Version | Text Only | Print | Product List | Glossary On
Versions: 1 2 3 4 5 6 7 8 9 10 11 12 13 14 15 16 17 18 19 20 21 22 23 24
640
FTUS44 KAMA 051120
TAFGUY
TAF
KGUY 051120Z 0512/0612 21014KT P6SM BKN300
     FM051700 25013KT P6SM BKN300
     FM060000 36017G26KT P6SM BKN300=

USA.gov is the U.S. government's official web portal to all federal, state and local government web resources and services.